createdAt,value
2019-01-24T00:02:02.801Z,96955.36
2019-01-24T00:08:39.738Z,96960.02
2019-01-24T00:15:07.391Z,96966.20
2019-01-24T00:21:34.040Z,96971.05
2019-01-24T00:28:05.269Z,96977.33
2019-01-24T00:38:17.994Z,96989.67
2019-01-24T00:44:57.288Z,96997.84
2019-01-24T00:51:25.129Z,97004.87
2019-01-24T00:57:52.745Z,97007.69
2019-01-24T01:04:31.699Z,97018.91
2019-01-24T01:10:58.370Z,97022.88
2019-01-24T01:17:28.611Z,97033.00
2019-01-24T01:24:07.561Z,97034.88
2019-01-24T01:30:37.218Z,97043.78
2019-01-24T01:40:18.046Z,97049.81
2019-01-24T01:46:49.042Z,97056.28
2019-01-24T01:53:14.656Z,97069.70
2019-01-24T01:59:54.430Z,97079.07
2019-01-24T02:06:20.282Z,97082.23
2019-01-24T02:12:46.463Z,97083.66
2019-01-24T02:19:29.453Z,97087.11
2019-01-24T02:25:57.082Z,97098.88
2019-01-24T02:32:24.982Z,97102.26
2019-01-24T02:41:51.740Z,97104.83
2019-01-24T02:48:26.648Z,97107.07
2019-01-24T02:54:52.471Z,97108.48
2019-01-24T03:01:18.290Z,97115.00
2019-01-24T03:07:45.929Z,97121.76
2019-01-24T03:14:14.981Z,97120.82
2019-01-24T03:20:52.780Z,97121.61
2019-01-24T03:27:25.592Z,97130.85
2019-01-24T03:33:52.637Z,97137.45
2019-01-24T03:43:42.101Z,97138.19
2019-01-24T03:50:08.307Z,97137.80
2019-01-24T03:56:36.142Z,97142.38
2019-01-24T04:03:05.791Z,97153.37
2019-01-24T04:09:32.828Z,97164.36
2019-01-24T04:16:12.646Z,97170.09
2019-01-24T04:22:37.598Z,97179.19
2019-01-24T04:29:07.459Z,97181.28
2019-01-24T04:35:48.215Z,97177.59
2019-01-24T04:45:24.944Z,97182.98
2019-01-24T04:52:01.854Z,97181.50
2019-01-24T04:58:28.899Z,97187.02
2019-01-24T05:04:56.736Z,97185.59
2019-01-24T05:11:33.329Z,97190.25
2019-01-24T05:18:01.509Z,97197.20
2019-01-24T05:24:27.074Z,97208.59
2019-01-24T05:31:08.124Z,97222.52
2019-01-24T05:37:38.027Z,97222.38
2019-01-24T05:43:27.424Z,97226.83
2019-01-24T05:49:41.322Z,97225.55
2019-01-24T05:56:21.990Z,97237.69
2019-01-24T06:02:48.114Z,97247.84
2019-01-24T06:09:17.373Z,97258.98
2019-01-24T06:15:44.451Z,97273.28
2019-01-24T06:22:24.762Z,97286.08
2019-01-24T06:28:51.590Z,97295.14
2019-01-24T06:35:17.408Z,97310.61
2019-01-24T06:41:56.113Z,97320.23
2019-01-24T06:48:09.675Z,97310.22
2019-01-24T06:54:40.089Z,97315.70
2019-01-24T07:01:03.721Z,97330.48
2019-01-24T07:07:44.689Z,97323.13
2019-01-24T07:14:12.335Z,97317.07
2019-01-24T07:20:36.131Z,97324.70
2019-01-24T07:27:17.952Z,97325.20
2019-01-24T07:33:48.168Z,97335.04
2019-01-24T07:40:19.043Z,97345.03
2019-01-24T07:49:50.474Z,97352.34
2019-01-24T07:56:16.325Z,97351.67
2019-01-24T08:02:56.101Z,97362.03
2019-01-24T08:09:11.188Z,97368.06
2019-01-24T08:15:36.742Z,97380.52
2019-01-24T08:22:15.965Z,97376.30
2019-01-24T08:28:41.548Z,97380.98
2019-01-24T08:35:11.641Z,97392.05
2019-01-24T08:41:37.346Z,97404.91
2019-01-24T08:51:54.213Z,97418.98
2019-01-24T08:58:33.521Z,97426.02
2019-01-24T09:04:59.342Z,97437.39
2019-01-24T09:11:32.759Z,97434.92
2019-01-24T09:18:12.839Z,97444.14
2019-01-24T09:24:43.061Z,97469.56
2019-01-24T09:31:08.638Z,97470.52
2019-01-24T09:37:54.553Z,97481.60
2019-01-24T09:43:45.998Z,97494.05
2019-01-24T09:54:03.275Z,97503.22
2019-01-24T10:00:38.402Z,97511.73
2019-01-24T10:07:06.042Z,97511.13
2019-01-24T10:13:47.855Z,97518.70
2019-01-24T10:20:16.059Z,97523.47
2019-01-24T10:26:43.905Z,97519.83
2019-01-24T10:33:27.531Z,97519.22
2019-01-24T10:39:55.742Z,97515.48
2019-01-24T10:45:52.269Z,97513.02
2019-01-24T10:55:54.232Z,97507.95
2019-01-24T11:02:20.085Z,97505.38
2019-01-24T11:09:01.019Z,97509.06
2019-01-24T11:15:26.608Z,97497.52
2019-01-24T11:21:52.662Z,97486.31
2019-01-24T11:28:31.415Z,97493.22
2019-01-24T11:34:58.083Z,97497.01
2019-01-24T11:41:24.260Z,97488.34
2019-01-24T11:47:56.143Z,97490.18
2019-01-24T11:57:24.769Z,97485.61
2019-01-24T12:04:03.721Z,97491.97
2019-01-24T12:10:34.184Z,97496.23
2019-01-24T12:17:03.308Z,97501.46
2019-01-24T12:23:41.382Z,97499.34
2019-01-24T12:30:11.242Z,97501.03
2019-01-24T12:36:41.757Z,97501.17
2019-01-24T12:43:09.951Z,97505.44
2019-01-24T12:49:48.903Z,97501.59
2019-01-24T12:59:55.934Z,97520.16
2019-01-24T13:06:21.733Z,97522.83
2019-01-24T13:12:47.343Z,97532.25
2019-01-24T13:19:24.483Z,97534.47
2019-01-24T13:25:50.102Z,97543.20
2019-01-24T13:32:16.768Z,97535.24
2019-01-24T13:38:42.952Z,97531.25
2019-01-24T13:44:44.301Z,97529.04
2019-01-24T13:51:14.246Z,97532.77
2019-01-24T14:01:18.825Z,97536.27
2019-01-24T14:07:48.232Z,97533.86
2019-01-24T14:14:32.233Z,97520.55
2019-01-24T14:20:57.674Z,97524.71
2019-01-24T14:27:25.891Z,97528.07
2019-01-24T14:33:46.516Z,97542.18
2019-01-24T14:40:27.631Z,97546.94
2019-01-24T14:47:03.587Z,97540.25
2019-01-24T14:53:29.371Z,97557.23
2019-01-24T15:03:31.994Z,97559.79
2019-01-24T15:10:19.371Z,97560.30
2019-01-24T15:16:47.850Z,97569.95
2019-01-24T15:23:15.747Z,97580.13
2019-01-24T15:29:58.040Z,97574.90
2019-01-24T15:36:01.305Z,97575.98
2019-01-24T15:42:30.431Z,97586.84
2019-01-24T15:48:57.318Z,97589.01
2019-01-24T15:55:36.272Z,97603.83
2019-01-24T16:05:52.467Z,97620.03
2019-01-24T16:12:29.026Z,97630.41
2019-01-24T16:19:01.831Z,97638.86
2019-01-24T16:25:40.787Z,97652.86
2019-01-24T16:32:22.153Z,97666.91
2019-01-24T16:38:56.176Z,97682.75
2019-01-24T16:45:43.054Z,97683.93
2019-01-24T16:52:12.526Z,97700.23
2019-01-24T16:58:38.367Z,97709.47
2019-01-24T17:08:40.693Z,97706.79
2019-01-24T17:15:07.524Z,97712.41
2019-01-24T17:21:46.133Z,97722.09
2019-01-24T17:28:12.291Z,97721.66
2019-01-24T17:34:54.276Z,97730.05
2019-01-24T17:41:35.497Z,97728.38
2019-01-24T17:48:01.879Z,97739.36
2019-01-24T17:54:25.874Z,97746.23
2019-01-24T18:00:54.395Z,97748.44
2019-01-24T18:10:24.159Z,97756.73
2019-01-24T18:17:06.345Z,97760.69
2019-01-24T18:23:32.162Z,97768.50
2019-01-24T18:29:59.810Z,97771.86
2019-01-24T18:36:36.932Z,97779.67
2019-01-24T18:43:06.587Z,97790.64
2019-01-24T18:49:33.256Z,97798.44
2019-01-24T18:56:01.462Z,97795.16
2019-01-24T19:02:40.110Z,97814.97
2019-01-24T19:12:19.148Z,97814.27
2019-01-24T19:18:47.608Z,97824.27
2019-01-24T19:25:18.784Z,97842.69
2019-01-24T19:31:47.498Z,97842.80
2019-01-24T19:38:26.451Z,97833.36
2019-01-24T19:44:57.537Z,97836.87
2019-01-24T19:48:27.618Z,97845.71
2019-01-24T19:54:41.319Z,97843.16
2019-01-24T20:01:06.761Z,97853.53
2019-01-24T20:07:46.082Z,97856.69
2019-01-24T20:13:36.560Z,97862.03
2019-01-24T20:20:00.262Z,97855.17
2019-01-24T20:26:27.179Z,97854.23
2019-01-24T20:33:08.149Z,97854.81
2019-01-24T20:39:33.970Z,97864.34
2019-01-24T20:46:03.614Z,97875.19
2019-01-24T20:55:40.342Z,97867.14
2019-01-24T21:02:07.024Z,97867.70
2019-01-24T21:08:45.323Z,97880.98
2019-01-24T21:15:12.143Z,97873.52
2019-01-24T21:21:37.958Z,97876.67
2019-01-24T21:28:16.910Z,97882.72
2019-01-24T21:34:55.857Z,97883.55
2019-01-24T21:40:58.446Z,97883.77
2019-01-24T21:47:37.041Z,97894.73
2019-01-24T21:57:52.269Z,97880.42
2019-01-24T22:04:16.073Z,97889.72
2019-01-24T22:10:53.218Z,97889.61
2019-01-24T22:17:34.805Z,97887.52
2019-01-24T22:24:15.812Z,97891.02
2019-01-24T22:30:58.060Z,97898.02
2019-01-24T22:37:38.108Z,97903.50
2019-01-24T22:44:17.056Z,97892.20
2019-01-24T22:50:59.040Z,97901.39
2019-01-24T23:01:42.411Z,97900.23
2019-01-24T23:08:12.041Z,97888.59
2019-01-24T23:14:37.893Z,97900.22
2019-01-24T23:21:04.564Z,97901.98
2019-01-24T23:27:30.738Z,97902.11
2019-01-24T23:33:54.534Z,97900.70
2019-01-24T23:40:20.360Z,97906.29
2019-01-24T23:46:45.424Z,97912.70
2019-01-24T23:53:13.807Z,97918.87
